createdAt,value
2022-12-14T00:03:33.000Z,-4.40
2022-12-14T00:08:41.295Z,-4.30
2022-12-14T00:13:44.063Z,-4.30
2022-12-14T00:18:52.838Z,-4.30
2022-12-14T00:23:57.079Z,-4.30
2022-12-14T00:29:01.318Z,-4.20
2022-12-14T00:34:03.078Z,-4.20
2022-12-14T00:39:05.096Z,-4.30
2022-12-14T00:44:06.863Z,-4.30
2022-12-14T00:49:09.108Z,-4.30
2022-12-14T00:54:10.891Z,-4.30
2022-12-14T00:59:12.600Z,-4.30
2022-12-14T01:04:24.540Z,-4.40
2022-12-14T01:09:26.657Z,-4.30
2022-12-14T01:14:28.371Z,-4.30
2022-12-14T01:19:30.233Z,-4.20
2022-12-14T01:24:31.915Z,-4.10
2022-12-14T01:29:33.870Z,-4.10
2022-12-14T01:34:35.568Z,-4.10
2022-12-14T01:39:37.211Z,-4.10
2022-12-14T01:44:38.893Z,-4.00
2022-12-14T01:49:55.802Z,-4.00
2022-12-14T01:55:19.444Z,-4.10
2022-12-14T02:00:21.229Z,-4.10
2022-12-14T02:05:24.937Z,-4.10
2022-12-14T02:10:29.056Z,-4.10
2022-12-14T02:15:31.997Z,-4.10
2022-12-14T02:21:01.459Z,-4.10
2022-12-14T02:26:18.260Z,-4.10
2022-12-14T02:31:37.427Z,-4.20
2022-12-14T02:36:51.734Z,-4.20
2022-12-14T02:42:13.780Z,-4.30
2022-12-14T02:47:48.749Z,-4.40
2022-12-14T02:53:18.407Z,-4.50
2022-12-14T02:58:29.017Z,-4.60
2022-12-14T03:03:31.031Z,-4.60
2022-12-14T03:08:36.055Z,-4.60
2022-12-14T03:13:53.888Z,-4.60
2022-12-14T03:19:01.283Z,-4.60
2022-12-14T03:24:09.982Z,-4.60
2022-12-14T03:29:18.752Z,-4.60
2022-12-14T03:34:28.075Z,-4.60
2022-12-14T03:39:35.651Z,-4.50
2022-12-14T03:44:49.442Z,-4.60
2022-12-14T03:50:03.135Z,-4.50
2022-12-14T03:55:17.000Z,-4.60
2022-12-14T04:00:23.667Z,-4.70
2022-12-14T04:05:35.085Z,-4.60
2022-12-14T04:11:04.788Z,-4.60
2022-12-14T04:16:36.210Z,-4.70
2022-12-14T04:21:55.039Z,-4.70
2022-12-14T04:27:11.081Z,-4.70
2022-12-14T04:32:30.341Z,-4.70
2022-12-14T04:37:35.992Z,-4.80
2022-12-14T04:42:48.469Z,-4.80
2022-12-14T04:48:03.657Z,-4.80
2022-12-14T04:53:16.986Z,-4.80
2022-12-14T04:58:28.916Z,-4.70
2022-12-14T05:03:34.503Z,-4.70
2022-12-14T05:09:03.958Z,-4.70
2022-12-14T05:14:11.899Z,-4.70
2022-12-14T05:19:15.085Z,-4.70
2022-12-14T05:24:17.478Z,-4.70
2022-12-14T05:29:19.389Z,-4.70
2022-12-14T05:34:21.470Z,-4.70
2022-12-14T05:39:23.152Z,-4.60
2022-12-14T05:44:24.881Z,-4.60
2022-12-14T05:49:26.542Z,-4.60
2022-12-14T05:54:28.208Z,-4.70
2022-12-14T05:59:30.899Z,-4.70
2022-12-14T06:04:32.758Z,-4.70
2022-12-14T06:09:34.497Z,-4.70
2022-12-14T06:14:36.163Z,-4.70
2022-12-14T06:19:37.846Z,-4.70
2022-12-14T06:24:39.592Z,-4.60
2022-12-14T06:29:41.329Z,-4.60
2022-12-14T06:34:45.395Z,-4.60
2022-12-14T06:39:52.622Z,-4.60
2022-12-14T06:44:55.920Z,-4.60
2022-12-14T06:49:57.704Z,-4.60
2022-12-14T06:54:59.389Z,-4.70
2022-12-14T07:00:01.184Z,-4.70
2022-12-14T07:05:03.013Z,-4.80
2022-12-14T07:10:05.908Z,-4.80
2022-12-14T07:15:08.237Z,-4.90
2022-12-14T07:20:10.572Z,-4.90
2022-12-14T07:25:12.322Z,-5.00
2022-12-14T07:30:14.505Z,-4.90
2022-12-14T07:35:16.950Z,-4.90
2022-12-14T07:40:18.717Z,-4.90
2022-12-14T07:45:20.380Z,-4.70
2022-12-14T07:50:22.069Z,-4.60
2022-12-14T07:55:23.810Z,-4.50
2022-12-14T08:00:25.546Z,-4.40
2022-12-14T08:05:27.283Z,-4.30
2022-12-14T08:10:28.961Z,-4.20
2022-12-14T08:15:30.606Z,-4.30
2022-12-14T08:20:32.302Z,-4.10
2022-12-14T08:25:33.990Z,-4.00
2022-12-14T08:30:40.388Z,-3.90
2022-12-14T08:35:42.151Z,-3.80
2022-12-14T08:40:43.853Z,-3.60
2022-12-14T08:45:45.546Z,-3.60
2022-12-14T08:50:49.885Z,-3.30
2022-12-14T08:55:51.833Z,-3.30
2022-12-14T09:01:32.127Z,-3.20
2022-12-14T09:06:39.645Z,-3.20
2022-12-14T09:11:45.574Z,-3.20
2022-12-14T09:16:47.500Z,-2.80
2022-12-14T09:21:49.243Z,-2.60
2022-12-14T09:26:51.757Z,-2.50
2022-12-14T09:31:54.898Z,-2.50
2022-12-14T09:36:56.866Z,-2.50
2022-12-14T09:42:19.280Z,-2.20
2022-12-14T09:47:30.071Z,-2.00
2022-12-14T09:52:34.508Z,-1.90
2022-12-14T09:57:41.455Z,-1.90
2022-12-14T10:03:06.865Z,-1.80
2022-12-14T10:08:40.832Z,-1.70
2022-12-14T10:14:13.213Z,-1.80
2022-12-14T10:19:42.080Z,-1.90
2022-12-14T10:24:48.830Z,-1.50
2022-12-14T10:30:00.157Z,-1.60
2022-12-14T10:35:16.639Z,-1.30
2022-12-14T10:40:33.740Z,-1.40
2022-12-14T10:45:52.227Z,-1.20
2022-12-14T10:51:00.019Z,-1.30
2022-12-14T10:56:08.926Z,-1.40
2022-12-14T11:01:14.925Z,-1.20
2022-12-14T11:06:19.853Z,-1.10
2022-12-14T11:11:23.951Z,-0.80
2022-12-14T11:16:36.696Z,-0.60
2022-12-14T11:21:39.334Z,-0.80
2022-12-14T11:26:42.913Z,-0.60
2022-12-14T11:31:46.851Z,-0.60
2022-12-14T11:36:49.793Z,-0.80
2022-12-14T11:42:01.363Z,-0.80
2022-12-14T11:47:08.405Z,-0.50
2022-12-14T11:52:25.653Z,-0.80
2022-12-14T11:57:52.920Z,-0.70
2022-12-14T12:02:57.869Z,-0.70
2022-12-14T12:08:02.277Z,-0.60
2022-12-14T12:13:07.160Z,-0.30
2022-12-14T12:18:18.215Z,-0.60
2022-12-14T12:23:27.567Z,-0.70
2022-12-14T12:28:34.490Z,-0.60
2022-12-14T12:34:10.086Z,-0.60
2022-12-14T12:39:20.164Z,-0.50
2022-12-14T12:44:38.488Z,-0.20
2022-12-14T12:49:40.226Z,-0.30
2022-12-14T12:54:52.284Z,-0.20
2022-12-14T12:59:56.917Z,-0.10
2022-12-14T13:05:16.555Z,-0.10
2022-12-14T13:10:32.413Z,-0.10
2022-12-14T13:15:47.708Z,-0.10
2022-12-14T13:20:49.746Z,-0.40
2022-12-14T13:26:57.323Z,-0.50
2022-12-14T13:32:22.485Z,-0.50
2022-12-14T13:37:39.284Z,-0.40
2022-12-14T13:43:13.246Z,-0.40
2022-12-14T13:48:27.232Z,-0.30
2022-12-14T13:53:34.447Z,-0.50
2022-12-14T13:58:45.331Z,-0.40
2022-12-14T14:03:52.325Z,-0.50
2022-12-14T14:08:54.505Z,-0.50
2022-12-14T14:14:34.127Z,-0.70
2022-12-14T14:19:40.216Z,-0.70
2022-12-14T14:24:52.142Z,-0.60
2022-12-14T14:29:56.849Z,-0.50
2022-12-14T14:35:00.830Z,-0.60
2022-12-14T14:40:18.679Z,-0.80
2022-12-14T14:45:31.485Z,-0.80
2022-12-14T14:50:37.035Z,-0.80
2022-12-14T14:55:54.733Z,-0.80
2022-12-14T15:01:02.621Z,-0.70
2022-12-14T15:06:04.742Z,-0.70
2022-12-14T15:11:17.902Z,-0.70
2022-12-14T15:16:40.717Z,-0.80
2022-12-14T15:21:42.573Z,-0.90
2022-12-14T15:26:44.352Z,-0.90
2022-12-14T15:31:48.337Z,-0.90
2022-12-14T15:36:51.770Z,-0.90
2022-12-14T15:42:02.814Z,-0.80
2022-12-14T15:47:04.595Z,-0.90
2022-12-14T15:52:08.027Z,-0.80
2022-12-14T15:57:19.072Z,-0.70
2022-12-14T16:02:31.382Z,-0.70
2022-12-14T16:07:44.974Z,-0.60
2022-12-14T16:12:49.565Z,-0.70
2022-12-14T16:17:59.247Z,-0.70
2022-12-14T16:23:22.266Z,-0.60
2022-12-14T16:28:31.332Z,-0.60
2022-12-14T16:33:35.887Z,-0.70
2022-12-14T16:38:54.813Z,-0.70
2022-12-14T16:44:00.545Z,-0.70
2022-12-14T16:49:30.314Z,-0.70
2022-12-14T16:54:33.710Z,-0.60
2022-12-14T16:59:38.755Z,-0.60
2022-12-14T17:04:42.599Z,-0.60
2022-12-14T17:09:44.282Z,-0.70
2022-12-14T17:14:49.685Z,-0.80
2022-12-14T17:19:52.203Z,-0.90
2022-12-14T17:24:54.263Z,-0.90
2022-12-14T17:29:57.066Z,-1.00
2022-12-14T17:34:59.469Z,-1.00
2022-12-14T17:40:01.222Z,-1.00
2022-12-14T17:45:03.306Z,-0.90
2022-12-14T17:50:05.538Z,-0.90
2022-12-14T17:55:07.502Z,-0.90
2022-12-14T18:00:35.290Z,-1.00
2022-12-14T18:05:38.510Z,-1.10
2022-12-14T18:10:42.808Z,-1.10
2022-12-14T18:15:50.907Z,-1.00
2022-12-14T18:20:55.951Z,-1.00
2022-12-14T18:25:59.640Z,-1.10
2022-12-14T18:31:07.309Z,-1.10
2022-12-14T18:36:11.751Z,-1.10
2022-12-14T18:41:16.703Z,-1.10
2022-12-14T18:46:18.702Z,-1.10
2022-12-14T18:51:23.823Z,-1.20
2022-12-14T18:56:28.006Z,-1.20
2022-12-14T19:01:29.854Z,-1.40
2022-12-14T19:06:46.944Z,-1.50
2022-12-14T19:11:48.705Z,-1.70
2022-12-14T19:16:50.377Z,-2.00
2022-12-14T19:21:54.787Z,-2.10
2022-12-14T19:26:56.605Z,-2.20
2022-12-14T19:32:04.867Z,-2.40
2022-12-14T19:37:07.136Z,-2.50
2022-12-14T19:42:08.860Z,-2.60
2022-12-14T19:47:10.663Z,-2.70
2022-12-14T19:52:12.598Z,-2.70
2022-12-14T19:57:14.449Z,-2.80
2022-12-14T20:02:16.827Z,-2.90
2022-12-14T20:07:18.740Z,-2.90
2022-12-14T20:12:20.496Z,-2.90
2022-12-14T20:17:22.184Z,-3.00
2022-12-14T20:22:23.902Z,-3.00
2022-12-14T20:27:25.698Z,-3.10
2022-12-14T20:32:27.553Z,-3.10
2022-12-14T20:37:30.971Z,-3.20
2022-12-14T20:42:32.758Z,-3.20
2022-12-14T20:47:34.815Z,-3.20
2022-12-14T20:52:36.580Z,-3.30
2022-12-14T20:57:38.343Z,-3.30
2022-12-14T21:02:40.237Z,-3.40
2022-12-14T21:07:44.803Z,-3.40
2022-12-14T21:12:48.892Z,-3.50
2022-12-14T21:17:50.789Z,-3.50
2022-12-14T21:22:52.463Z,-3.60
2022-12-14T21:27:54.167Z,-3.70
2022-12-14T21:32:55.896Z,-3.70
2022-12-14T21:37:57.624Z,-3.70
2022-12-14T21:42:59.384Z,-3.70
2022-12-14T21:48:01.077Z,-3.80
2022-12-14T21:53:02.841Z,-3.80
2022-12-14T21:58:19.507Z,-3.90
2022-12-14T22:03:21.323Z,-3.90
2022-12-14T22:08:23.132Z,-3.90
2022-12-14T22:13:24.999Z,-3.90
2022-12-14T22:18:26.731Z,-3.90
2022-12-14T22:23:31.248Z,-4.00
2022-12-14T22:28:34.157Z,-4.10
2022-12-14T22:33:36.164Z,-4.10
2022-12-14T22:38:38.102Z,-4.20
2022-12-14T22:43:40.577Z,-4.20
2022-12-14T22:48:42.806Z,-4.30
2022-12-14T22:53:44.547Z,-4.30
2022-12-14T22:58:57.503Z,-4.30
2022-12-14T23:03:59.453Z,-4.40
2022-12-14T23:09:19.894Z,-4.40
2022-12-14T23:14:40.382Z,-4.40
2022-12-14T23:20:04.625Z,-4.50
2022-12-14T23:25:25.788Z,-4.50
2022-12-14T23:30:46.432Z,-4.60
2022-12-14T23:36:06.654Z,-4.60
2022-12-14T23:41:27.040Z,-4.70
2022-12-14T23:46:47.899Z,-4.70
2022-12-14T23:52:08.243Z,-4.80
2022-12-14T23:57:28.870Z,-4.80
